createdAt,value
2019-03-04T00:01:55.556Z,6.13
2019-03-04T00:05:00.725Z,6.67
2019-03-04T00:08:08.403Z,6.57
2019-03-04T00:11:14.416Z,6.70
2019-03-04T00:14:19.412Z,6.43
2019-03-04T00:17:24.340Z,6.27
2019-03-04T00:20:29.469Z,7.07
2019-03-04T00:23:34.389Z,6.47
2019-03-04T00:26:44.154Z,6.83
2019-03-04T00:29:49.071Z,6.37
2019-03-04T00:32:54.141Z,6.50
2019-03-04T00:35:59.074Z,6.47
2019-03-04T00:39:05.655Z,6.10
2019-03-04T00:42:10.540Z,6.43
2019-03-04T00:45:15.584Z,5.80
2019-03-04T00:48:25.703Z,5.40
2019-03-04T00:51:30.964Z,5.47
2019-03-04T00:54:36.048Z,5.80
2019-03-04T00:57:41.095Z,5.37
2019-03-04T01:00:46.177Z,6.80
2019-03-04T01:03:51.459Z,6.20
2019-03-04T01:06:56.588Z,6.23
2019-03-04T01:10:01.642Z,5.97
2019-03-04T01:13:06.346Z,4.90
2019-03-04T01:16:11.232Z,5.50
2019-03-04T01:19:16.289Z,5.90
2019-03-04T01:22:21.528Z,6.50
2019-03-04T01:25:26.658Z,4.47
2019-03-04T01:28:31.730Z,5.30
2019-03-04T01:31:36.953Z,6.13
2019-03-04T01:34:41.862Z,5.50
2019-03-04T01:37:47.011Z,6.30
2019-03-04T01:40:51.843Z,5.10
2019-03-04T01:43:56.785Z,5.63
2019-03-04T01:47:01.897Z,5.93
2019-03-04T01:50:07.398Z,5.50
2019-03-04T01:53:12.325Z,6.23
2019-03-04T01:56:17.528Z,6.80
2019-03-04T01:59:22.743Z,8.30
2019-03-04T02:02:27.807Z,8.53
2019-03-04T02:05:32.708Z,5.47
2019-03-04T02:08:37.658Z,5.87
2019-03-04T02:11:42.648Z,5.83
2019-03-04T02:14:47.788Z,5.33
2019-03-04T02:17:53.119Z,6.13
2019-03-04T02:20:58.096Z,4.97
2019-03-04T02:24:25.857Z,6.17
2019-03-04T02:27:31.110Z,6.00
2019-03-04T02:30:35.928Z,5.30
2019-03-04T02:33:41.206Z,5.77
2019-03-04T02:36:46.002Z,6.60
2019-03-04T02:39:51.032Z,6.30
2019-03-04T02:42:56.150Z,5.77
2019-03-04T02:46:10.950Z,6.47
2019-03-04T02:49:15.973Z,6.30
2019-03-04T02:52:20.968Z,6.07
2019-03-04T02:55:25.851Z,5.10
2019-03-04T02:58:30.982Z,5.23
2019-03-04T03:01:35.929Z,5.20
2019-03-04T03:04:40.903Z,5.30
2019-03-04T03:07:45.825Z,6.03
2019-03-04T03:10:50.883Z,5.10
2019-03-04T03:13:55.975Z,4.73
2019-03-04T03:17:00.982Z,5.50
2019-03-04T03:20:06.076Z,4.73
2019-03-04T03:23:11.131Z,5.03
2019-03-04T03:26:16.149Z,4.80
2019-03-04T03:29:21.112Z,4.43
2019-03-04T03:32:26.178Z,5.10
2019-03-04T03:35:31.285Z,4.70
2019-03-04T03:38:36.320Z,4.87
2019-03-04T03:41:41.428Z,5.70
2019-03-04T03:44:46.456Z,5.07
2019-03-04T03:47:51.424Z,4.53
2019-03-04T03:50:56.484Z,5.20
2019-03-04T03:54:01.572Z,4.80
2019-03-04T03:57:06.485Z,5.67
2019-03-04T04:00:30.339Z,4.77
2019-03-04T04:03:35.409Z,5.40
2019-03-04T04:06:40.592Z,4.97
2019-03-04T04:09:45.670Z,5.10
2019-03-04T04:12:50.910Z,4.60
2019-03-04T04:15:55.841Z,4.63
2019-03-04T04:19:00.655Z,4.57
2019-03-04T04:22:05.619Z,5.10
2019-03-04T04:25:12.059Z,4.60
2019-03-04T04:28:17.336Z,4.30
2019-03-04T04:31:22.251Z,4.50
2019-03-04T04:34:27.311Z,4.53
2019-03-04T04:37:42.970Z,4.80
2019-03-04T04:40:47.976Z,4.43
2019-03-04T04:43:52.971Z,4.50
2019-03-04T04:46:58.970Z,4.07
2019-03-04T04:50:05.230Z,4.43
2019-03-04T04:53:10.255Z,5.40
2019-03-04T04:56:16.776Z,4.60
2019-03-04T04:59:22.469Z,5.25
2019-03-04T05:02:27.667Z,5.87
2019-03-04T05:05:32.671Z,5.47
2019-03-04T05:08:38.272Z,4.97
2019-03-04T05:11:43.537Z,5.33
2019-03-04T05:14:49.580Z,5.20
2019-03-04T05:17:54.574Z,5.97
2019-03-04T05:20:59.563Z,5.20
2019-03-04T05:24:04.646Z,5.40
2019-03-04T05:27:09.846Z,5.07
2019-03-04T05:30:19.331Z,5.53
2019-03-04T05:33:24.444Z,5.27
2019-03-04T05:36:29.400Z,5.80
2019-03-04T05:39:34.284Z,4.97
2019-03-04T05:42:39.483Z,5.30
2019-03-04T05:45:44.399Z,5.07
2019-03-04T05:48:49.537Z,5.50
2019-03-04T05:51:54.544Z,5.87
2019-03-04T05:54:59.821Z,5.60
2019-03-04T05:58:04.767Z,5.00
2019-03-04T06:01:39.102Z,5.13
2019-03-04T06:04:45.898Z,5.27
2019-03-04T06:07:57.066Z,4.63
2019-03-04T06:11:02.153Z,4.90
2019-03-04T06:14:08.068Z,5.63
2019-03-04T06:17:12.960Z,5.30
2019-03-04T06:20:18.608Z,5.53
2019-03-04T06:23:23.757Z,4.67
2019-03-04T06:26:28.766Z,5.20
2019-03-04T06:29:33.929Z,5.60
2019-03-04T06:32:39.003Z,5.40
2019-03-04T06:35:44.216Z,5.90
2019-03-04T06:38:49.164Z,5.90
2019-03-04T06:41:55.040Z,6.10
2019-03-04T06:45:00.315Z,5.83
2019-03-04T06:48:05.165Z,6.70
2019-03-04T06:51:11.143Z,5.93
2019-03-04T06:54:42.867Z,6.10
2019-03-04T06:57:54.369Z,5.57
2019-03-04T07:01:19.407Z,6.60
2019-03-04T07:04:36.033Z,5.10
2019-03-04T07:07:41.182Z,6.80
2019-03-04T07:10:46.103Z,5.57
2019-03-04T07:13:50.994Z,6.17
2019-03-04T07:16:55.870Z,6.23
2019-03-04T07:20:07.108Z,6.10
2019-03-04T07:23:12.229Z,5.37
2019-03-04T07:26:17.170Z,6.00
2019-03-04T07:29:22.441Z,5.75
2019-03-04T07:32:27.427Z,5.30
2019-03-04T07:35:32.574Z,5.20
2019-03-04T07:38:55.651Z,5.83
2019-03-04T07:42:01.295Z,5.17
2019-03-04T07:45:08.019Z,5.90
2019-03-04T07:48:13.130Z,4.80
2019-03-04T07:51:18.746Z,5.77
2019-03-04T07:54:24.026Z,6.20
2019-03-04T07:57:28.947Z,6.30
2019-03-04T08:00:34.315Z,5.40
2019-03-04T08:03:39.337Z,5.30
2019-03-04T08:06:44.806Z,6.20
2019-03-04T08:10:09.776Z,4.63
2019-03-04T08:13:22.308Z,5.10
2019-03-04T08:16:27.330Z,5.20
2019-03-04T08:19:32.585Z,6.40
2019-03-04T08:22:37.549Z,5.50
2019-03-04T08:25:42.863Z,6.03
2019-03-04T08:28:47.965Z,6.10
2019-03-04T08:31:52.680Z,5.60
2019-03-04T08:34:57.418Z,5.40
2019-03-04T08:38:02.662Z,6.10
2019-03-04T08:41:07.650Z,5.73
2019-03-04T08:44:12.930Z,5.70
2019-03-04T08:47:18.234Z,9.63
2019-03-04T08:50:23.217Z,10.80
2019-03-04T08:53:28.321Z,11.83
2019-03-04T08:56:34.007Z,11.00
2019-03-04T08:59:39.221Z,11.90
2019-03-04T09:02:44.514Z,13.20
2019-03-04T09:05:49.555Z,12.40
2019-03-04T09:08:54.599Z,12.13
2019-03-04T09:11:59.731Z,10.87
2019-03-04T09:15:05.467Z,10.27
2019-03-04T09:18:10.693Z,10.30
2019-03-04T09:21:15.672Z,10.20
2019-03-04T09:24:20.753Z,9.43
2019-03-04T09:27:25.961Z,11.13
2019-03-04T09:30:31.153Z,10.28
2019-03-04T09:33:40.279Z,11.33
2019-03-04T09:36:45.307Z,10.93
2019-03-04T09:39:50.603Z,11.12
2019-03-04T09:42:55.460Z,11.85
2019-03-04T09:46:00.536Z,10.32
2019-03-04T09:49:05.599Z,12.70
2019-03-04T09:52:10.727Z,13.55
2019-03-04T09:55:16.184Z,12.28
2019-03-04T09:58:21.553Z,12.70
2019-03-04T10:01:44.392Z,13.85
2019-03-04T10:05:27.005Z,13.00
2019-03-04T10:08:42.421Z,13.13
2019-03-04T10:12:01.619Z,15.08
2019-03-04T10:15:30.462Z,16.05
2019-03-04T10:19:10.976Z,17.73
2019-03-04T10:22:31.318Z,17.45
2019-03-04T10:25:57.851Z,18.03
2019-03-04T10:29:45.228Z,17.77
2019-03-04T10:33:39.256Z,18.97
2019-03-04T10:37:28.028Z,18.90
2019-03-04T10:41:12.698Z,18.20
2019-03-04T10:44:40.854Z,16.77
2019-03-04T10:47:46.131Z,18.20
2019-03-04T10:50:51.129Z,19.37
2019-03-04T10:53:59.089Z,18.47
2019-03-04T10:57:02.807Z,19.33
2019-03-04T11:00:18.825Z,20.53
2019-03-04T11:03:23.841Z,19.60
2019-03-04T11:06:29.210Z,18.30
2019-03-04T11:09:36.573Z,20.93
2019-03-04T11:12:41.921Z,21.07
2019-03-04T11:15:46.874Z,19.10
2019-03-04T11:18:52.203Z,19.50
2019-03-04T11:21:57.449Z,19.90
2019-03-04T11:25:02.793Z,18.90
2019-03-04T11:28:07.747Z,21.13
2019-03-04T11:31:12.717Z,20.03
2019-03-04T11:34:17.929Z,18.37
2019-03-04T11:37:23.056Z,19.43
2019-03-04T11:40:39.667Z,19.60
2019-03-04T11:43:44.732Z,19.13
2019-03-04T11:46:49.671Z,19.77
2019-03-04T11:49:55.019Z,19.73
2019-03-04T11:52:59.823Z,19.80
2019-03-04T11:56:05.373Z,20.10
2019-03-04T11:59:10.595Z,20.90
2019-03-04T12:02:21.031Z,21.10
2019-03-04T12:05:26.079Z,20.83
2019-03-04T12:08:31.179Z,19.50
2019-03-04T12:11:38.439Z,19.43
2019-03-04T12:14:43.327Z,18.83
2019-03-04T12:17:48.321Z,19.90
2019-03-04T12:20:53.392Z,20.37
2019-03-04T12:23:58.494Z,20.27
2019-03-04T12:27:04.030Z,18.90
2019-03-04T12:30:13.036Z,19.70
2019-03-04T12:33:18.220Z,18.73
2019-03-04T12:36:23.449Z,21.03
2019-03-04T12:39:28.757Z,19.10
2019-03-04T12:42:33.750Z,20.70
2019-03-04T12:45:38.727Z,21.10
2019-03-04T12:48:43.666Z,20.20
2019-03-04T12:51:48.912Z,21.20
2019-03-04T12:54:53.977Z,20.87
2019-03-04T12:58:01.266Z,19.93
2019-03-04T13:01:06.556Z,20.00
2019-03-04T13:04:11.713Z,20.33
2019-03-04T13:07:16.811Z,20.27
2019-03-04T13:10:22.422Z,18.73
2019-03-04T13:13:27.269Z,20.03
2019-03-04T13:16:32.341Z,18.30
2019-03-04T13:19:37.585Z,20.30
2019-03-04T13:22:43.179Z,20.50
2019-03-04T13:25:53.711Z,18.73
2019-03-04T13:29:02.226Z,19.03
2019-03-04T13:32:07.394Z,20.40
2019-03-04T13:35:23.749Z,20.13
2019-03-04T13:38:20.507Z,17.87
2019-03-04T13:41:25.563Z,18.83
2019-03-04T13:44:30.572Z,18.03
2019-03-04T13:47:35.486Z,15.50
2019-03-04T13:50:42.780Z,15.70
2019-03-04T13:53:47.259Z,13.40
2019-03-04T13:56:52.229Z,13.90
2019-03-04T13:59:57.318Z,13.00
2019-03-04T14:03:03.226Z,13.40
2019-03-04T14:06:08.456Z,13.27
2019-03-04T14:09:16.142Z,13.80
2019-03-04T14:12:21.172Z,12.30
2019-03-04T14:15:29.074Z,11.37
2019-03-04T14:18:33.803Z,11.53
2019-03-04T14:21:38.703Z,11.17
2019-03-04T14:24:43.747Z,10.07
2019-03-04T14:27:48.775Z,9.70
2019-03-04T14:30:54.079Z,8.50
2019-03-04T14:33:59.041Z,8.50
2019-03-04T14:37:04.027Z,8.33
2019-03-04T14:40:10.103Z,8.43
2019-03-04T14:43:15.240Z,8.20
2019-03-04T14:46:24.106Z,8.30
2019-03-04T14:49:29.159Z,7.73
2019-03-04T14:52:34.119Z,8.70
2019-03-04T14:55:39.135Z,7.87
2019-03-04T14:58:44.102Z,7.70
2019-03-04T15:01:49.060Z,7.73
2019-03-04T15:04:54.345Z,6.80
2019-03-04T15:07:59.451Z,7.87
2019-03-04T15:11:04.630Z,6.40
2019-03-04T15:14:09.701Z,6.40
2019-03-04T15:17:31.180Z,6.80
2019-03-04T15:20:36.346Z,6.10
2019-03-04T15:23:41.444Z,7.63
2019-03-04T15:26:46.930Z,5.90
2019-03-04T15:29:53.081Z,5.80
2019-03-04T15:32:58.252Z,6.90
2019-03-04T15:36:03.138Z,7.77
2019-03-04T15:39:22.811Z,6.20
2019-03-04T15:42:25.705Z,6.67
2019-03-04T15:45:30.697Z,7.10
2019-03-04T15:48:35.652Z,6.67
2019-03-04T15:51:40.525Z,6.77
2019-03-04T15:54:45.555Z,6.20
2019-03-04T15:57:51.144Z,6.83
2019-03-04T16:00:56.196Z,7.40
2019-03-04T16:04:01.190Z,7.10
2019-03-04T16:07:12.778Z,6.53
2019-03-04T16:10:18.808Z,6.40
2019-03-04T16:13:23.793Z,5.97
2019-03-04T16:16:28.895Z,5.87
2019-03-04T16:19:34.561Z,7.17
2019-03-04T16:22:40.238Z,5.17
2019-03-04T16:25:45.309Z,7.00
2019-03-04T16:28:50.261Z,5.80
2019-03-04T16:31:57.863Z,5.90
2019-03-04T16:35:04.463Z,6.13
2019-03-04T16:38:09.378Z,6.00
2019-03-04T16:41:14.808Z,5.60
2019-03-04T16:44:19.801Z,6.10
2019-03-04T16:47:24.793Z,6.37
2019-03-04T16:50:29.844Z,6.27
2019-03-04T16:53:34.846Z,6.27
2019-03-04T16:56:40.075Z,6.53
2019-03-04T16:59:45.151Z,5.80
2019-03-04T17:02:50.575Z,4.77
2019-03-04T17:05:55.695Z,5.43
2019-03-04T17:09:00.421Z,4.73
2019-03-04T17:12:06.321Z,5.57
2019-03-04T17:15:13.835Z,6.40
2019-03-04T17:18:18.905Z,6.37
2019-03-04T17:21:24.428Z,5.30
2019-03-04T17:24:29.604Z,5.83
2019-03-04T17:27:34.707Z,7.07
2019-03-04T17:30:39.918Z,5.90
2019-03-04T17:33:45.708Z,9.20
2019-03-04T17:36:50.819Z,6.43
2019-03-04T17:39:55.893Z,6.67
2019-03-04T17:43:00.917Z,5.67
2019-03-04T17:46:06.379Z,6.53
2019-03-04T17:49:11.280Z,5.83
2019-03-04T17:52:16.222Z,8.67
2019-03-04T17:55:21.677Z,6.50
2019-03-04T17:58:26.862Z,6.87
2019-03-04T18:01:32.171Z,7.27
2019-03-04T18:04:39.862Z,6.57
2019-03-04T18:07:44.941Z,5.67
2019-03-04T18:10:50.301Z,5.70
2019-03-04T18:13:56.330Z,6.37
2019-03-04T18:17:03.246Z,6.23
2019-03-04T18:20:09.758Z,6.70
2019-03-04T18:23:15.032Z,6.70
2019-03-04T18:26:23.562Z,5.40
2019-03-04T18:30:00.337Z,2.37
2019-03-04T18:33:58.057Z,1.10
2019-03-04T18:37:13.309Z,1.20
2019-03-04T18:40:57.681Z,1.03
2019-03-04T18:44:30.473Z,0.57
2019-03-04T18:48:22.189Z,0.87
2019-03-04T18:51:37.745Z,1.13
2019-03-04T18:54:47.556Z,1.10
2019-03-04T18:57:52.731Z,0.77
2019-03-04T19:00:57.930Z,0.67
2019-03-04T19:04:03.068Z,1.10
2019-03-04T19:07:08.058Z,0.40
2019-03-04T19:10:13.699Z,0.57
2019-03-04T19:13:18.588Z,0.40
2019-03-04T19:16:23.740Z,0.80
2019-03-04T19:19:28.545Z,0.70
2019-03-04T19:22:34.552Z,0.83
2019-03-04T19:25:40.161Z,0.70
2019-03-04T19:28:45.166Z,0.90
2019-03-04T19:31:50.591Z,0.73
2019-03-04T19:34:55.482Z,1.00
2019-03-04T19:38:00.406Z,0.80
2019-03-04T19:41:05.779Z,1.00
2019-03-04T19:44:10.877Z,1.03
2019-03-04T19:47:18.696Z,0.70
2019-03-04T19:50:23.670Z,0.77
2019-03-04T19:53:28.746Z,0.70
2019-03-04T19:56:33.891Z,0.60
2019-03-04T19:59:39.085Z,0.60
2019-03-04T20:02:44.395Z,0.50
2019-03-04T20:05:50.482Z,0.47
2019-03-04T20:08:55.622Z,0.77
2019-03-04T20:12:00.732Z,1.10
2019-03-04T20:15:07.151Z,0.60
2019-03-04T20:18:12.346Z,0.73
2019-03-04T20:21:17.318Z,0.83
2019-03-04T20:24:22.526Z,0.60
2019-03-04T20:27:27.826Z,0.70
2019-03-04T20:30:33.153Z,0.60
2019-03-04T20:33:38.178Z,1.40
2019-03-04T20:36:43.517Z,0.70
2019-03-04T20:39:48.544Z,0.70
2019-03-04T20:42:55.114Z,0.70
2019-03-04T20:46:00.209Z,0.50
2019-03-04T20:49:05.265Z,0.50
2019-03-04T20:52:10.376Z,0.50
2019-03-04T20:55:16.073Z,1.80
2019-03-04T20:58:21.078Z,0.83
2019-03-04T21:01:26.762Z,0.90
2019-03-04T21:04:32.030Z,1.07
2019-03-04T21:07:37.212Z,1.00
2019-03-04T21:10:42.279Z,0.73
2019-03-04T21:13:47.310Z,0.90
2019-03-04T21:16:52.486Z,0.80
2019-03-04T21:19:57.651Z,1.10
2019-03-04T21:23:02.628Z,1.00
2019-03-04T21:26:35.102Z,0.80
2019-03-04T21:29:48.492Z,0.80
2019-03-04T21:33:28.024Z,1.40
2019-03-04T21:36:48.784Z,0.90
2019-03-04T21:39:53.893Z,1.00
2019-03-04T21:43:22.657Z,1.07
2019-03-04T21:46:46.687Z,1.13
2019-03-04T21:49:54.299Z,0.93
2019-03-04T21:53:15.471Z,1.23
2019-03-04T21:57:07.472Z,1.20
2019-03-04T22:00:17.140Z,0.90
2019-03-04T22:03:24.670Z,1.53
2019-03-04T22:06:29.944Z,1.43
2019-03-04T22:09:34.821Z,1.43
2019-03-04T22:12:40.008Z,6.23
2019-03-04T22:15:47.936Z,4.00
2019-03-04T22:18:54.000Z,4.07
2019-03-04T22:21:58.959Z,8.77
2019-03-04T22:25:03.998Z,7.30
2019-03-04T22:28:09.043Z,4.07
2019-03-04T22:31:14.243Z,1.80
2019-03-04T22:34:19.410Z,21.93
2019-03-04T22:37:24.340Z,1.90
2019-03-04T22:40:29.873Z,2.63
2019-03-04T22:43:35.127Z,1.57
2019-03-04T22:46:40.268Z,2.93
2019-03-04T22:49:47.385Z,7.87
2019-03-04T22:52:52.463Z,5.30
2019-03-04T22:55:57.799Z,4.80
2019-03-04T22:59:02.692Z,3.40
2019-03-04T23:02:09.824Z,4.13
2019-03-04T23:05:17.865Z,2.40
2019-03-04T23:08:23.009Z,1.37
2019-03-04T23:11:30.014Z,1.47
2019-03-04T23:14:35.006Z,2.37
2019-03-04T23:17:40.125Z,2.57
2019-03-04T23:20:47.255Z,2.20
2019-03-04T23:23:52.197Z,1.77
2019-03-04T23:26:57.053Z,1.73
2019-03-04T23:30:02.016Z,1.40
2019-03-04T23:33:07.144Z,1.80
2019-03-04T23:36:12.184Z,1.87
2019-03-04T23:39:17.153Z,1.17
2019-03-04T23:42:22.183Z,0.90
2019-03-04T23:45:27.360Z,1.10
2019-03-04T23:48:33.707Z,0.70
2019-03-04T23:51:38.688Z,1.03
2019-03-04T23:54:43.647Z,0.90
2019-03-04T23:57:48.604Z,6.43
